sensor_id;sensor_type;location;lat;lon;timestamp;temperature;humidity
1137;DHT22;557;48.466;7.950;2023-06-14T00:01:15;16.30;1.00
1137;DHT22;557;48.466;7.950;2023-06-14T00:04:03;16.20;1.00
1137;DHT22;557;48.466;7.950;2023-06-14T00:06:50;16.20;1.00
1137;DHT22;557;48.466;7.950;2023-06-14T00:09:38;16.20;1.00
1137;DHT22;557;48.466;7.950;2023-06-14T00:12:27;16.00;1.00
1137;DHT22;557;48.466;7.950;2023-06-14T00:15:14;16.00;1.00
1137;DHT22;557;48.466;7.950;2023-06-14T00:18:02;16.00;1.00
1137;DHT22;557;48.466;7.950;2023-06-14T00:20:50;15.90;1.00
1137;DHT22;557;48.466;7.950;2023-06-14T00:23:37;15.90;1.00
1137;DHT22;557;48.466;7.950;2023-06-14T00:26:25;15.90;1.00
1137;DHT22;557;48.466;7.950;2023-06-14T00:29:14;15.90;1.00
1137;DHT22;557;48.466;7.950;2023-06-14T00:32:01;15.80;1.00
1137;DHT22;557;48.466;7.950;2023-06-14T00:34:48;15.70;1.00
1137;DHT22;557;48.466;7.950;2023-06-14T00:37:36;15.60;1.00
1137;DHT22;557;48.466;7.950;2023-06-14T00:40:23;15.50;1.00
1137;DHT22;557;48.466;7.950;2023-06-14T00:43:11;15.70;1.00
1137;DHT22;557;48.466;7.950;2023-06-14T00:45:59;15.60;1.00
1137;DHT22;557;48.466;7.950;2023-06-14T00:48:47;15.60;1.00
1137;DHT22;557;48.466;7.950;2023-06-14T00:51:35;15.50;1.00
1137;DHT22;557;48.466;7.950;2023-06-14T00:54:23;15.50;1.00
1137;DHT22;557;48.466;7.950;2023-06-14T00:57:11;15.40;1.00
1137;DHT22;557;48.466;7.950;2023-06-14T00:59:59;15.40;1.00
1137;DHT22;557;48.466;7.950;2023-06-14T01:02:47;15.40;1.00
1137;DHT22;557;48.466;7.950;2023-06-14T01:05:35;15.30;1.00
1137;DHT22;557;48.466;7.950;2023-06-14T01:08:28;15.30;1.00
1137;DHT22;557;48.466;7.950;2023-06-14T01:11:22;15.30;1.00
1137;DHT22;557;48.466;7.950;2023-06-14T01:14:12;15.20;1.00
1137;DHT22;557;48.466;7.950;2023-06-14T01:17:02;15.10;1.00
1137;DHT22;557;48.466;7.950;2023-06-14T01:19:51;15.10;1.00
1137;DHT22;557;48.466;7.950;2023-06-14T01:22:50;15.10;1.00
1137;DHT22;557;48.466;7.950;2023-06-14T01:25:38;15.20;1.00
1137;DHT22;557;48.466;7.950;2023-06-14T01:28:28;15.20;1.00
1137;DHT22;557;48.466;7.950;2023-06-14T01:31:20;15.20;1.00
1137;DHT22;557;48.466;7.950;2023-06-14T01:34:08;15.20;1.00
1137;DHT22;557;48.466;7.950;2023-06-14T01:36:56;15.20;1.00
1137;DHT22;557;48.466;7.950;2023-06-14T01:39:45;15.10;1.00
1137;DHT22;557;48.466;7.950;2023-06-14T01:42:34;15.10;1.00
1137;DHT22;557;48.466;7.950;2023-06-14T01:45:23;15.00;1.00
1137;DHT22;557;48.466;7.950;2023-06-14T01:48:10;14.90;1.00
1137;DHT22;557;48.466;7.950;2023-06-14T01:50:58;14.80;99.90
1137;DHT22;557;48.466;7.950;2023-06-14T01:53:45;14.60;1.00
1137;DHT22;557;48.466;7.950;2023-06-14T01:56:35;14.40;1.00
1137;DHT22;557;48.466;7.950;2023-06-14T01:59:23;14.40;50.00
1137;DHT22;557;48.466;7.950;2023-06-14T02:02:10;14.20;99.90
1137;DHT22;557;48.466;7.950;2023-06-14T02:04:57;14.20;99.90
1137;DHT22;557;48.466;7.950;2023-06-14T02:07:45;14.10;50.60
1137;DHT22;557;48.466;7.950;2023-06-14T02:10:32;14.10;84.40
1137;DHT22;557;48.466;7.950;2023-06-14T02:13:21;14.00;69.70
1137;DHT22;557;48.466;7.950;2023-06-14T02:16:08;14.00;99.90
1137;DHT22;557;48.466;7.950;2023-06-14T02:18:56;14.00;99.90
1137;DHT22;557;48.466;7.950;2023-06-14T02:21:44;13.90;99.90
1137;DHT22;557;48.466;7.950;2023-06-14T02:24:31;13.90;64.80
1137;DHT22;557;48.466;7.950;2023-06-14T02:27:18;13.80;99.90
1137;DHT22;557;48.466;7.950;2023-06-14T02:30:08;13.70;99.90
1137;DHT22;557;48.466;7.950;2023-06-14T02:32:55;13.60;99.90
1137;DHT22;557;48.466;7.950;2023-06-14T02:35:43;13.50;99.90
1137;DHT22;557;48.466;7.950;2023-06-14T02:38:30;13.50;99.90
1137;DHT22;557;48.466;7.950;2023-06-14T02:41:17;13.40;99.90
1137;DHT22;557;48.466;7.950;2023-06-14T02:44:05;13.40;99.90
1137;DHT22;557;48.466;7.950;2023-06-14T02:46:54;13.40;99.90
1137;DHT22;557;48.466;7.950;2023-06-14T02:49:41;13.50;99.90
1137;DHT22;557;48.466;7.950;2023-06-14T02:52:29;13.40;99.90
1137;DHT22;557;48.466;7.950;2023-06-14T02:55:16;13.30;99.90
1137;DHT22;557;48.466;7.950;2023-06-14T02:58:03;13.20;99.90
1137;DHT22;557;48.466;7.950;2023-06-14T03:00:51;13.20;99.90
1137;DHT22;557;48.466;7.950;2023-06-14T03:03:40;13.30;99.90
1137;DHT22;557;48.466;7.950;2023-06-14T03:06:27;13.20;99.90
1137;DHT22;557;48.466;7.950;2023-06-14T03:09:15;13.20;99.90
1137;DHT22;557;48.466;7.950;2023-06-14T03:12:03;13.20;99.90
1137;DHT22;557;48.466;7.950;2023-06-14T03:14:52;13.20;99.90
1137;DHT22;557;48.466;7.950;2023-06-14T03:17:43;13.10;99.90
1137;DHT22;557;48.466;7.950;2023-06-14T03:20:32;13.10;99.90
1137;DHT22;557;48.466;7.950;2023-06-14T03:23:20;13.00;99.90
1137;DHT22;557;48.466;7.950;2023-06-14T03:26:07;13.10;99.90
1137;DHT22;557;48.466;7.950;2023-06-14T03:28:54;13.10;99.90
1137;DHT22;557;48.466;7.950;2023-06-14T03:31:57;13.20;99.90
1137;DHT22;557;48.466;7.950;2023-06-14T03:34:45;13.20;1.00
1137;DHT22;557;48.466;7.950;2023-06-14T03:37:33;13.30;99.90
1137;DHT22;557;48.466;7.950;2023-06-14T03:40:21;13.40;1.00
1137;DHT22;557;48.466;7.950;2023-06-14T03:43:12;13.40;99.90
1137;DHT22;557;48.466;7.950;2023-06-14T03:46:00;13.30;99.90
1137;DHT22;557;48.466;7.950;2023-06-14T03:48:47;13.20;70.70
1137;DHT22;557;48.466;7.950;2023-06-14T03:51:34;13.20;1.00
1137;DHT22;557;48.466;7.950;2023-06-14T03:54:23;13.10;1.00
1137;DHT22;557;48.466;7.950;2023-06-14T03:57:10;13.10;1.00
1137;DHT22;557;48.466;7.950;2023-06-14T03:59:57;13.00;76.50
1137;DHT22;557;48.466;7.950;2023-06-14T04:02:45;13.00;1.00
1137;DHT22;557;48.466;7.950;2023-06-14T04:05:32;13.00;99.90
1137;DHT22;557;48.466;7.950;2023-06-14T04:08:19;13.00;99.90
1137;DHT22;557;48.466;7.950;2023-06-14T04:11:09;12.90;99.90
1137;DHT22;557;48.466;7.950;2023-06-14T04:13:56;12.80;99.90
1137;DHT22;557;48.466;7.950;2023-06-14T04:16:44;12.90;99.90
1137;DHT22;557;48.466;7.950;2023-06-14T04:19:31;13.00;99.90
1137;DHT22;557;48.466;7.950;2023-06-14T04:22:19;13.00;1.00
1137;DHT22;557;48.466;7.950;2023-06-14T04:25:07;13.00;99.90
1137;DHT22;557;48.466;7.950;2023-06-14T04:27:55;13.10;22.00
1137;DHT22;557;48.466;7.950;2023-06-14T04:30:43;13.10;1.00
1137;DHT22;557;48.466;7.950;2023-06-14T04:33:33;13.20;1.00
1137;DHT22;557;48.466;7.950;2023-06-14T04:36:28;13.40;1.00
1137;DHT22;557;48.466;7.950;2023-06-14T04:39:17;13.60;1.00
1137;DHT22;557;48.466;7.950;2023-06-14T04:42:04;13.80;1.00
1137;DHT22;557;48.466;7.950;2023-06-14T04:44:54;13.90;1.00
1137;DHT22;557;48.466;7.950;2023-06-14T04:47:42;14.00;99.90
1137;DHT22;557;48.466;7.950;2023-06-14T04:50:29;14.10;99.90
1137;DHT22;557;48.466;7.950;2023-06-14T04:53:19;14.20;99.90
1137;DHT22;557;48.466;7.950;2023-06-14T04:56:08;14.30;99.90
1137;DHT22;557;48.466;7.950;2023-06-14T04:58:57;14.50;99.90
1137;DHT22;557;48.466;7.950;2023-06-14T05:01:45;14.60;99.90
1137;DHT22;557;48.466;7.950;2023-06-14T05:04:34;14.70;99.90
1137;DHT22;557;48.466;7.950;2023-06-14T05:07:25;14.70;99.90
1137;DHT22;557;48.466;7.950;2023-06-14T05:10:12;14.90;99.90
1137;DHT22;557;48.466;7.950;2023-06-14T05:13:00;15.00;99.90
1137;DHT22;557;48.466;7.950;2023-06-14T05:15:47;15.20;99.90
1137;DHT22;557;48.466;7.950;2023-06-14T05:18:36;15.30;99.90
1137;DHT22;557;48.466;7.950;2023-06-14T05:21:24;15.40;99.90
1137;DHT22;557;48.466;7.950;2023-06-14T05:24:11;15.60;99.90
1137;DHT22;557;48.466;7.950;2023-06-14T05:26:58;15.80;99.90
1137;DHT22;557;48.466;7.950;2023-06-14T05:29:46;15.90;99.90
1137;DHT22;557;48.466;7.950;2023-06-14T05:32:33;15.90;99.90
1137;DHT22;557;48.466;7.950;2023-06-14T05:35:22;16.00;99.90
1137;DHT22;557;48.466;7.950;2023-06-14T05:38:09;16.10;99.90
1137;DHT22;557;48.466;7.950;2023-06-14T05:40:57;16.20;99.90
1137;DHT22;557;48.466;7.950;2023-06-14T05:43:45;16.30;97.70
1137;DHT22;557;48.466;7.950;2023-06-14T05:46:32;16.40;89.90
1137;DHT22;557;48.466;7.950;2023-06-14T05:49:20;16.60;95.30
1137;DHT22;557;48.466;7.950;2023-06-14T05:52:10;16.70;86.80
1137;DHT22;557;48.466;7.950;2023-06-14T05:54:58;16.90;68.00
1137;DHT22;557;48.466;7.950;2023-06-14T05:57:46;17.30;44.70
1137;DHT22;557;48.466;7.950;2023-06-14T06:00:34;17.30;18.60
1137;DHT22;557;48.466;7.950;2023-06-14T06:03:22;17.30;18.30
1137;DHT22;557;48.466;7.950;2023-06-14T06:06:09;17.30;12.70
1137;DHT22;557;48.466;7.950;2023-06-14T06:08:58;17.50;11.50
1137;DHT22;557;48.466;7.950;2023-06-14T06:11:46;17.60;9.00
1137;DHT22;557;48.466;7.950;2023-06-14T06:14:33;17.60;2.80
1137;DHT22;557;48.466;7.950;2023-06-14T06:17:21;17.60;1.00
1137;DHT22;557;48.466;7.950;2023-06-14T06:20:09;17.60;1.00
1137;DHT22;557;48.466;7.950;2023-06-14T06:22:57;17.70;1.00
1137;DHT22;557;48.466;7.950;2023-06-14T06:25:46;17.90;1.00
1137;DHT22;557;48.466;7.950;2023-06-14T06:28:34;18.00;1.00
1137;DHT22;557;48.466;7.950;2023-06-14T06:31:21;18.10;1.00
1137;DHT22;557;48.466;7.950;2023-06-14T06:34:09;18.10;1.00
1137;DHT22;557;48.466;7.950;2023-06-14T06:36:56;18.10;1.00
1137;DHT22;557;48.466;7.950;2023-06-14T06:39:43;18.20;1.00
1137;DHT22;557;48.466;7.950;2023-06-14T06:42:32;18.50;1.00
1137;DHT22;557;48.466;7.950;2023-06-14T06:45:19;18.40;1.00
1137;DHT22;557;48.466;7.950;2023-06-14T06:48:06;18.30;1.00
1137;DHT22;557;48.466;7.950;2023-06-14T06:50:56;18.40;1.00
1137;DHT22;557;48.466;7.950;2023-06-14T06:53:43;18.40;1.00
1137;DHT22;557;48.466;7.950;2023-06-14T06:56:31;18.60;1.00
1137;DHT22;557;48.466;7.950;2023-06-14T06:59:19;18.50;1.00
1137;DHT22;557;48.466;7.950;2023-06-14T07:02:07;18.40;1.00
1137;DHT22;557;48.466;7.950;2023-06-14T07:04:54;18.60;1.00
1137;DHT22;557;48.466;7.950;2023-06-14T07:07:41;18.90;1.00
1137;DHT22;557;48.466;7.950;2023-06-14T07:10:29;19.20;1.00
1137;DHT22;557;48.466;7.950;2023-06-14T07:13:17;19.50;1.00
1137;DHT22;557;48.466;7.950;2023-06-14T07:16:05;19.40;1.00
1137;DHT22;557;48.466;7.950;2023-06-14T07:18:53;19.50;1.00
1137;DHT22;557;48.466;7.950;2023-06-14T07:21:40;19.70;1.00
1137;DHT22;557;48.466;7.950;2023-06-14T07:24:27;19.60;1.00
1137;DHT22;557;48.466;7.950;2023-06-14T07:27:15;19.70;1.00
1137;DHT22;557;48.466;7.950;2023-06-14T07:30:03;19.90;1.00
1137;DHT22;557;48.466;7.950;2023-06-14T07:32:52;20.20;1.00
1137;DHT22;557;48.466;7.950;2023-06-14T07:35:39;20.70;1.00
1137;DHT22;557;48.466;7.950;2023-06-14T07:38:27;20.90;1.00
1137;DHT22;557;48.466;7.950;2023-06-14T07:41:16;21.20;1.00
1137;DHT22;557;48.466;7.950;2023-06-14T07:44:03;21.40;1.00
1137;DHT22;557;48.466;7.950;2023-06-14T07:46:51;21.70;1.00
1137;DHT22;557;48.466;7.950;2023-06-14T07:53:41;22.10;1.00
1137;DHT22;557;48.466;7.950;2023-06-14T07:56:29;22.50;1.00
1137;DHT22;557;48.466;7.950;2023-06-14T07:59:16;22.40;1.00
1137;DHT22;557;48.466;7.950;2023-06-14T08:02:04;22.70;1.00
1137;DHT22;557;48.466;7.950;2023-06-14T08:04:51;22.90;1.00
1137;DHT22;557;48.466;7.950;2023-06-14T08:07:39;23.20;1.00
1137;DHT22;557;48.466;7.950;2023-06-14T08:10:28;23.40;1.00
1137;DHT22;557;48.466;7.950;2023-06-14T08:13:15;23.60;1.00
1137;DHT22;557;48.466;7.950;2023-06-14T08:16:03;23.80;1.00
1137;DHT22;557;48.466;7.950;2023-06-14T08:18:51;24.10;1.00
1137;DHT22;557;48.466;7.950;2023-06-14T08:21:38;24.10;1.00
1137;DHT22;557;48.466;7.950;2023-06-14T08:24:26;24.40;1.00
1137;DHT22;557;48.466;7.950;2023-06-14T08:27:15;24.70;1.00
1137;DHT22;557;48.466;7.950;2023-06-14T08:30:03;24.90;1.00
1137;DHT22;557;48.466;7.950;2023-06-14T08:32:50;24.90;1.00
1137;DHT22;557;48.466;7.950;2023-06-14T08:35:38;25.10;1.00
1137;DHT22;557;48.466;7.950;2023-06-14T08:42:27;25.10;1.00
1137;DHT22;557;48.466;7.950;2023-06-14T08:45:15;25.40;1.00
1137;DHT22;557;48.466;7.950;2023-06-14T08:48:02;25.30;1.00
1137;DHT22;557;48.466;7.950;2023-06-14T08:50:51;25.40;1.00
1137;DHT22;557;48.466;7.950;2023-06-14T08:53:51;25.50;1.00
1137;DHT22;557;48.466;7.950;2023-06-14T08:56:39;25.90;1.00
1137;DHT22;557;48.466;7.950;2023-06-14T08:59:29;26.10;1.00
1137;DHT22;557;48.466;7.950;2023-06-14T09:02:20;26.00;1.00
1137;DHT22;557;48.466;7.950;2023-06-14T09:05:08;26.20;1.00
1137;DHT22;557;48.466;7.950;2023-06-14T09:07:56;26.40;1.00
1137;DHT22;557;48.466;7.950;2023-06-14T09:10:46;26.50;1.00
1137;DHT22;557;48.466;7.950;2023-06-14T09:13:33;26.70;1.00
1137;DHT22;557;48.466;7.950;2023-06-14T09:16:23;26.70;1.00
1137;DHT22;557;48.466;7.950;2023-06-14T09:19:14;27.10;1.00
1137;DHT22;557;48.466;7.950;2023-06-14T09:22:07;26.90;1.00
1137;DHT22;557;48.466;7.950;2023-06-14T09:24:58;26.90;1.00
1137;DHT22;557;48.466;7.950;2023-06-14T09:27:47;27.10;1.00
1137;DHT22;557;48.466;7.950;2023-06-14T09:30:36;27.10;1.00
1137;DHT22;557;48.466;7.950;2023-06-14T09:33:25;27.30;1.00
1137;DHT22;557;48.466;7.950;2023-06-14T09:36:14;27.30;1.00
1137;DHT22;557;48.466;7.950;2023-06-14T09:39:03;27.20;1.00
1137;DHT22;557;48.466;7.950;2023-06-14T09:41:52;27.50;1.00
1137;DHT22;557;48.466;7.950;2023-06-14T09:44:39;27.60;1.00
1137;DHT22;557;48.466;7.950;2023-06-14T09:47:26;27.60;1.00
1137;DHT22;557;48.466;7.950;2023-06-14T09:50:15;27.50;1.00
1137;DHT22;557;48.466;7.950;2023-06-14T09:53:05;27.70;1.00
1137;DHT22;557;48.466;7.950;2023-06-14T09:55:55;27.60;1.00
1137;DHT22;557;48.466;7.950;2023-06-14T09:58:44;27.70;1.00
1137;DHT22;557;48.466;7.950;2023-06-14T10:01:31;27.70;1.00
1137;DHT22;557;48.466;7.950;2023-06-14T10:04:21;28.00;1.00
1137;DHT22;557;48.466;7.950;2023-06-14T10:07:11;28.30;1.00
1137;DHT22;557;48.466;7.950;2023-06-14T10:09:59;28.50;1.00
1137;DHT22;557;48.466;7.950;2023-06-14T10:12:46;28.70;1.00
1137;DHT22;557;48.466;7.950;2023-06-14T10:15:38;28.60;1.00
1137;DHT22;557;48.466;7.950;2023-06-14T10:18:33;28.80;1.00
1137;DHT22;557;48.466;7.950;2023-06-14T10:21:28;28.70;1.00
1137;DHT22;557;48.466;7.950;2023-06-14T10:24:19;29.00;1.00
1137;DHT22;557;48.466;7.950;2023-06-14T10:27:13;29.00;1.00
1137;DHT22;557;48.466;7.950;2023-06-14T10:30:05;29.10;1.00
1137;DHT22;557;48.466;7.950;2023-06-14T10:37:04;29.10;1.00
1137;DHT22;557;48.466;7.950;2023-06-14T10:39:53;29.00;1.00
1137;DHT22;557;48.466;7.950;2023-06-14T10:42:51;28.60;1.00
1137;DHT22;557;48.466;7.950;2023-06-14T10:46:12;28.50;1.00
1137;DHT22;557;48.466;7.950;2023-06-14T10:49:00;28.90;1.00
1137;DHT22;557;48.466;7.950;2023-06-14T10:51:50;29.30;1.00
1137;DHT22;557;48.466;7.950;2023-06-14T10:54:38;29.30;1.00
1137;DHT22;557;48.466;7.950;2023-06-14T10:57:27;29.40;1.00
1137;DHT22;557;48.466;7.950;2023-06-14T11:00:15;29.60;1.00
1137;DHT22;557;48.466;7.950;2023-06-14T11:03:36;30.00;1.00
1137;DHT22;557;48.466;7.950;2023-06-14T11:06:44;30.10;1.00
1137;DHT22;557;48.466;7.950;2023-06-14T11:10:04;30.30;1.00
1137;DHT22;557;48.466;7.950;2023-06-14T11:12:55;30.50;1.00
1137;DHT22;557;48.466;7.950;2023-06-14T11:15:45;30.10;1.00
1137;DHT22;557;48.466;7.950;2023-06-14T11:18:33;30.10;1.00
1137;DHT22;557;48.466;7.950;2023-06-14T11:21:20;30.00;1.00
1137;DHT22;557;48.466;7.950;2023-06-14T11:24:10;30.20;1.00
1137;DHT22;557;48.466;7.950;2023-06-14T11:26:58;30.40;1.00
1137;DHT22;557;48.466;7.950;2023-06-14T11:29:50;30.30;1.00
1137;DHT22;557;48.466;7.950;2023-06-14T11:32:37;30.60;1.00
1137;DHT22;557;48.466;7.950;2023-06-14T11:35:26;30.70;1.00
1137;DHT22;557;48.466;7.950;2023-06-14T11:38:13;30.80;1.00
1137;DHT22;557;48.466;7.950;2023-06-14T11:41:01;31.10;1.00
1137;DHT22;557;48.466;7.950;2023-06-14T11:43:48;31.30;1.00
1137;DHT22;557;48.466;7.950;2023-06-14T11:46:40;31.50;1.00
1137;DHT22;557;48.466;7.950;2023-06-14T11:49:28;31.40;1.00
1137;DHT22;557;48.466;7.950;2023-06-14T11:52:16;31.40;1.00
1137;DHT22;557;48.466;7.950;2023-06-14T11:55:04;31.60;1.00
1137;DHT22;557;48.466;7.950;2023-06-14T11:57:53;31.50;1.00
1137;DHT22;557;48.466;7.950;2023-06-14T12:00:41;31.50;1.00
1137;DHT22;557;48.466;7.950;2023-06-14T12:03:30;31.40;1.00
1137;DHT22;557;48.466;7.950;2023-06-14T12:06:26;31.20;1.00
1137;DHT22;557;48.466;7.950;2023-06-14T12:09:18;31.10;1.00
1137;DHT22;557;48.466;7.950;2023-06-14T12:12:06;31.00;1.00
1137;DHT22;557;48.466;7.950;2023-06-14T12:14:55;31.20;1.00
1137;DHT22;557;48.466;7.950;2023-06-14T12:17:43;31.20;1.00
1137;DHT22;557;48.466;7.950;2023-06-14T12:20:33;31.20;1.00
1137;DHT22;557;48.466;7.950;2023-06-14T12:23:21;31.40;1.00
1137;DHT22;557;48.466;7.950;2023-06-14T12:26:08;31.30;1.00
1137;DHT22;557;48.466;7.950;2023-06-14T12:28:56;31.40;1.00
1137;DHT22;557;48.466;7.950;2023-06-14T12:31:44;31.70;1.00
1137;DHT22;557;48.466;7.950;2023-06-14T12:34:31;31.70;1.00
1137;DHT22;557;48.466;7.950;2023-06-14T12:37:19;31.80;1.00
1137;DHT22;557;48.466;7.950;2023-06-14T12:40:08;31.70;1.00
1137;DHT22;557;48.466;7.950;2023-06-14T12:42:57;31.80;1.00
1137;DHT22;557;48.466;7.950;2023-06-14T12:45:44;32.00;1.00
1137;DHT22;557;48.466;7.950;2023-06-14T12:48:32;32.10;1.00
1137;DHT22;557;48.466;7.950;2023-06-14T12:51:20;32.10;1.00
1137;DHT22;557;48.466;7.950;2023-06-14T12:54:09;32.10;1.00
1137;DHT22;557;48.466;7.950;2023-06-14T12:56:58;32.10;1.00
1137;DHT22;557;48.466;7.950;2023-06-14T12:59:45;32.50;1.00
1137;DHT22;557;48.466;7.950;2023-06-14T13:02:32;32.40;1.00
1137;DHT22;557;48.466;7.950;2023-06-14T13:05:20;32.30;1.00
1137;DHT22;557;48.466;7.950;2023-06-14T13:08:07;32.40;1.00
1137;DHT22;557;48.466;7.950;2023-06-14T13:10:56;32.30;1.00
1137;DHT22;557;48.466;7.950;2023-06-14T13:13:43;32.10;1.00
1137;DHT22;557;48.466;7.950;2023-06-14T13:16:31;32.00;1.00
1137;DHT22;557;48.466;7.950;2023-06-14T13:19:18;32.10;1.00
1137;DHT22;557;48.466;7.950;2023-06-14T13:22:06;31.90;1.00
1137;DHT22;557;48.466;7.950;2023-06-14T13:24:53;32.00;1.00
1137;DHT22;557;48.466;7.950;2023-06-14T13:27:42;32.00;1.00
1137;DHT22;557;48.466;7.950;2023-06-14T13:30:29;32.10;1.00
1137;DHT22;557;48.466;7.950;2023-06-14T13:33:20;31.80;1.00
1137;DHT22;557;48.466;7.950;2023-06-14T13:36:07;31.70;1.00
1137;DHT22;557;48.466;7.950;2023-06-14T13:38:54;31.60;1.00
1137;DHT22;557;48.466;7.950;2023-06-14T13:41:41;31.70;1.00
1137;DHT22;557;48.466;7.950;2023-06-14T13:44:30;31.70;1.00
1137;DHT22;557;48.466;7.950;2023-06-14T13:47:19;31.60;1.00
1137;DHT22;557;48.466;7.950;2023-06-14T13:50:07;31.60;1.00
1137;DHT22;557;48.466;7.950;2023-06-14T13:52:54;31.60;1.00
1137;DHT22;557;48.466;7.950;2023-06-14T13:55:41;31.50;1.00
1137;DHT22;557;48.466;7.950;2023-06-14T13:58:29;31.20;1.00
1137;DHT22;557;48.466;7.950;2023-06-14T14:01:18;31.30;1.00
1137;DHT22;557;48.466;7.950;2023-06-14T14:04:05;31.40;1.00
1137;DHT22;557;48.466;7.950;2023-06-14T14:06:53;31.40;1.00
1137;DHT22;557;48.466;7.950;2023-06-14T14:09:40;31.40;1.00
1137;DHT22;557;48.466;7.950;2023-06-14T14:12:29;31.50;1.00
1137;DHT22;557;48.466;7.950;2023-06-14T14:15:16;31.70;1.00
1137;DHT22;557;48.466;7.950;2023-06-14T14:18:05;31.90;1.00
1137;DHT22;557;48.466;7.950;2023-06-14T14:20:53;31.80;1.00
1137;DHT22;557;48.466;7.950;2023-06-14T14:23:40;31.80;1.00
1137;DHT22;557;48.466;7.950;2023-06-14T14:26:27;32.10;1.00
1137;DHT22;557;48.466;7.950;2023-06-14T14:29:14;32.50;1.00
1137;DHT22;557;48.466;7.950;2023-06-14T14:32:03;32.60;1.00
1137;DHT22;557;48.466;7.950;2023-06-14T14:34:52;32.60;1.00
1137;DHT22;557;48.466;7.950;2023-06-14T14:37:39;32.90;1.00
1137;DHT22;557;48.466;7.950;2023-06-14T14:40:26;33.00;1.00
1137;DHT22;557;48.466;7.950;2023-06-14T14:43:14;33.50;1.00
1137;DHT22;557;48.466;7.950;2023-06-14T14:46:01;33.50;1.00
1137;DHT22;557;48.466;7.950;2023-06-14T14:48:48;33.30;1.00
1137;DHT22;557;48.466;7.950;2023-06-14T14:51:37;33.40;1.00
1137;DHT22;557;48.466;7.950;2023-06-14T14:54:26;33.70;1.00
1137;DHT22;557;48.466;7.950;2023-06-14T14:57:15;33.70;1.00
1137;DHT22;557;48.466;7.950;2023-06-14T15:00:03;33.70;1.00
1137;DHT22;557;48.466;7.950;2023-06-14T15:02:51;33.60;1.00
1137;DHT22;557;48.466;7.950;2023-06-14T15:05:38;33.20;1.00
1137;DHT22;557;48.466;7.950;2023-06-14T15:08:27;33.20;1.00
1137;DHT22;557;48.466;7.950;2023-06-14T15:11:14;33.40;1.00
1137;DHT22;557;48.466;7.950;2023-06-14T15:14:02;33.40;1.00
1137;DHT22;557;48.466;7.950;2023-06-14T15:16:49;33.50;1.00
1137;DHT22;557;48.466;7.950;2023-06-14T15:19:36;33.40;1.00
1137;DHT22;557;48.466;7.950;2023-06-14T15:22:24;33.20;1.00
1137;DHT22;557;48.466;7.950;2023-06-14T15:25:13;33.30;1.00
1137;DHT22;557;48.466;7.950;2023-06-14T15:28:00;33.50;1.00
1137;DHT22;557;48.466;7.950;2023-06-14T15:30:52;33.80;1.00
1137;DHT22;557;48.466;7.950;2023-06-14T15:33:39;33.60;1.00
1137;DHT22;557;48.466;7.950;2023-06-14T15:36:26;33.80;1.00
1137;DHT22;557;48.466;7.950;2023-06-14T15:39:14;34.00;1.00
1137;DHT22;557;48.466;7.950;2023-06-14T15:42:03;34.10;1.00
1137;DHT22;557;48.466;7.950;2023-06-14T15:44:51;34.40;1.00
1137;DHT22;557;48.466;7.950;2023-06-14T15:47:38;34.70;1.00
1137;DHT22;557;48.466;7.950;2023-06-14T15:50:26;34.90;1.00
1137;DHT22;557;48.466;7.950;2023-06-14T15:53:13;35.10;1.00
1137;DHT22;557;48.466;7.950;2023-06-14T15:56:01;35.30;1.00
1137;DHT22;557;48.466;7.950;2023-06-14T15:58:50;35.40;1.00
1137;DHT22;557;48.466;7.950;2023-06-14T16:01:37;35.40;1.00
1137;DHT22;557;48.466;7.950;2023-06-14T16:04:25;35.70;1.00
1137;DHT22;557;48.466;7.950;2023-06-14T16:07:13;35.70;1.00
1137;DHT22;557;48.466;7.950;2023-06-14T16:10:01;34.60;1.00
1137;DHT22;557;48.466;7.950;2023-06-14T16:12:48;33.10;1.00
1137;DHT22;557;48.466;7.950;2023-06-14T16:15:37;31.70;1.00
1137;DHT22;557;48.466;7.950;2023-06-14T16:18:24;30.60;1.00
1137;DHT22;557;48.466;7.950;2023-06-14T16:21:12;29.90;1.00
1137;DHT22;557;48.466;7.950;2023-06-14T16:23:59;29.50;1.00
1137;DHT22;557;48.466;7.950;2023-06-14T16:26:46;29.20;1.00
1137;DHT22;557;48.466;7.950;2023-06-14T16:29:35;29.00;1.00
1137;DHT22;557;48.466;7.950;2023-06-14T16:32:23;28.60;1.00
1137;DHT22;557;48.466;7.950;2023-06-14T16:35:11;28.30;1.00
1137;DHT22;557;48.466;7.950;2023-06-14T16:37:58;28.10;1.00
1137;DHT22;557;48.466;7.950;2023-06-14T16:40:45;28.10;1.00
1137;DHT22;557;48.466;7.950;2023-06-14T16:43:33;27.90;1.00
1137;DHT22;557;48.466;7.950;2023-06-14T16:46:28;27.90;1.00
1137;DHT22;557;48.466;7.950;2023-06-14T16:49:18;27.80;1.00
1137;DHT22;557;48.466;7.950;2023-06-14T16:52:06;27.70;1.00
1137;DHT22;557;48.466;7.950;2023-06-14T16:54:53;27.50;1.00
1137;DHT22;557;48.466;7.950;2023-06-14T16:57:41;27.40;1.00
1137;DHT22;557;48.466;7.950;2023-06-14T17:00:28;27.30;1.00
1137;DHT22;557;48.466;7.950;2023-06-14T17:03:15;27.10;1.00
1137;DHT22;557;48.466;7.950;2023-06-14T17:06:04;26.90;1.00
1137;DHT22;557;48.466;7.950;2023-06-14T17:08:52;26.70;1.00
1137;DHT22;557;48.466;7.950;2023-06-14T17:11:40;26.80;1.00
1137;DHT22;557;48.466;7.950;2023-06-14T17:14:27;26.70;1.00
1137;DHT22;557;48.466;7.950;2023-06-14T17:17:14;26.60;1.00
1137;DHT22;557;48.466;7.950;2023-06-14T17:20:02;26.60;1.00
1137;DHT22;557;48.466;7.950;2023-06-14T17:22:51;26.40;1.00
1137;DHT22;557;48.466;7.950;2023-06-14T17:25:38;26.30;1.00
1137;DHT22;557;48.466;7.950;2023-06-14T17:28:25;26.20;1.00
1137;DHT22;557;48.466;7.950;2023-06-14T17:31:13;26.20;1.00
1137;DHT22;557;48.466;7.950;2023-06-14T17:34:00;26.20;1.00
1137;DHT22;557;48.466;7.950;2023-06-14T17:36:47;26.20;1.00
1137;DHT22;557;48.466;7.950;2023-06-14T17:39:38;26.10;1.00
1137;DHT22;557;48.466;7.950;2023-06-14T17:42:27;26.00;1.00
1137;DHT22;557;48.466;7.950;2023-06-14T17:45:14;25.90;1.00
1137;DHT22;557;48.466;7.950;2023-06-14T17:48:02;25.70;1.00
1137;DHT22;557;48.466;7.950;2023-06-14T17:50:49;25.60;1.00
1137;DHT22;557;48.466;7.950;2023-06-14T17:53:36;25.40;1.00
1137;DHT22;557;48.466;7.950;2023-06-14T17:56:26;25.30;1.00
1137;DHT22;557;48.466;7.950;2023-06-14T17:59:13;25.10;1.00
1137;DHT22;557;48.466;7.950;2023-06-14T18:02:01;25.10;1.00
1137;DHT22;557;48.466;7.950;2023-06-14T18:04:49;24.90;1.00
1137;DHT22;557;48.466;7.950;2023-06-14T18:07:36;24.90;1.00
1137;DHT22;557;48.466;7.950;2023-06-14T18:10:25;24.70;1.00
1137;DHT22;557;48.466;7.950;2023-06-14T18:13:14;24.70;1.00
1137;DHT22;557;48.466;7.950;2023-06-14T18:16:01;24.60;1.00
1137;DHT22;557;48.466;7.950;2023-06-14T18:18:49;24.50;1.00
1137;DHT22;557;48.466;7.950;2023-06-14T18:21:37;24.40;1.00
1137;DHT22;557;48.466;7.950;2023-06-14T18:24:25;24.30;1.00
1137;DHT22;557;48.466;7.950;2023-06-14T18:27:12;24.20;1.00
1137;DHT22;557;48.466;7.950;2023-06-14T18:30:02;24.10;1.00
1137;DHT22;557;48.466;7.950;2023-06-14T18:32:49;24.00;1.00
1137;DHT22;557;48.466;7.950;2023-06-14T18:35:37;24.00;1.00
1137;DHT22;557;48.466;7.950;2023-06-14T18:38:24;23.90;1.00
1137;DHT22;557;48.466;7.950;2023-06-14T18:41:11;23.80;1.00
1137;DHT22;557;48.466;7.950;2023-06-14T18:43:59;23.70;1.00
1137;DHT22;557;48.466;7.950;2023-06-14T18:46:47;23.60;1.00
1137;DHT22;557;48.466;7.950;2023-06-14T18:49:35;23.60;1.00
1137;DHT22;557;48.466;7.950;2023-06-14T18:52:22;23.50;1.00
1137;DHT22;557;48.466;7.950;2023-06-14T18:55:10;23.40;1.00
1137;DHT22;557;48.466;7.950;2023-06-14T18:57:58;23.30;1.00
1137;DHT22;557;48.466;7.950;2023-06-14T19:00:45;23.30;1.00
1137;DHT22;557;48.466;7.950;2023-06-14T19:03:34;23.20;1.00
1137;DHT22;557;48.466;7.950;2023-06-14T19:06:22;23.10;1.00